sensor_id;sensor_type;location;lat;lon;timestamp;pressure;altitude;pressure_sealevel;temperature;humidity
60417;BME280;46263;44.726;10.396;2022-08-14T00:01:08;100102.41;;;20.96;66.02
60417;BME280;46263;44.726;10.396;2022-08-14T00:03:34;100101.44;;;20.46;67.72
60417;BME280;46263;44.726;10.396;2022-08-14T00:06:00;100100.53;;;20.32;68.80
60417;BME280;46263;44.726;10.396;2022-08-14T00:08:25;100093.94;;;20.19;69.64
60417;BME280;46263;44.726;10.396;2022-08-14T00:10:51;100092.41;;;20.13;70.04
60417;BME280;46263;44.726;10.396;2022-08-14T00:13:17;100086.69;;;20.28;68.88
60417;BME280;46263;44.726;10.396;2022-08-14T00:15:44;100086.16;;;20.26;68.80
60417;BME280;46263;44.726;10.396;2022-08-14T00:18:13;100075.69;;;20.33;68.90
60417;BME280;46263;44.726;10.396;2022-08-14T00:20:40;100076.34;;;19.93;71.07
60417;BME280;46263;44.726;10.396;2022-08-14T00:23:06;100076.19;;;20.35;69.53
60417;BME280;46263;44.726;10.396;2022-08-14T00:25:31;100077.59;;;20.65;67.83
60417;BME280;46263;44.726;10.396;2022-08-14T00:27:57;100077.22;;;20.72;67.97
60417;BME280;46263;44.726;10.396;2022-08-14T00:30:22;100080.66;;;20.77;68.24
60417;BME280;46263;44.726;10.396;2022-08-14T00:32:47;100084.38;;;20.81;68.50
60417;BME280;46263;44.726;10.396;2022-08-14T00:35:13;100086.47;;;20.43;65.89
60417;BME280;46263;44.726;10.396;2022-08-14T00:37:39;100081.41;;;20.50;66.35
60417;BME280;46263;44.726;10.396;2022-08-14T00:40:05;100082.63;;;20.58;66.28
60417;BME280;46263;44.726;10.396;2022-08-14T00:42:32;100068.00;;;20.35;68.32
60417;BME280;46263;44.726;10.396;2022-08-14T00:44:57;100061.00;;;20.48;68.94
60417;BME280;46263;44.726;10.396;2022-08-14T00:47:23;100056.16;;;20.45;68.30
60417;BME280;46263;44.726;10.396;2022-08-14T00:49:50;100059.38;;;20.47;67.73
60417;BME280;46263;44.726;10.396;2022-08-14T00:52:17;100064.41;;;20.40;68.26
60417;BME280;46263;44.726;10.396;2022-08-14T00:54:43;100054.91;;;20.37;69.48
60417;BME280;46263;44.726;10.396;2022-08-14T00:57:09;100052.22;;;20.18;69.58
60417;BME280;46263;44.726;10.396;2022-08-14T00:59:35;100046.25;;;20.16;69.87
60417;BME280;46263;44.726;10.396;2022-08-14T01:02:00;100039.28;;;19.92;71.33
60417;BME280;46263;44.726;10.396;2022-08-14T01:04:26;100037.50;;;19.44;72.67
60417;BME280;46263;44.726;10.396;2022-08-14T01:06:52;100038.22;;;19.55;73.39
60417;BME280;46263;44.726;10.396;2022-08-14T01:09:18;100026.22;;;19.13;75.16
60417;BME280;46263;44.726;10.396;2022-08-14T01:11:47;100023.69;;;18.98;75.80
60417;BME280;46263;44.726;10.396;2022-08-14T01:14:13;100018.84;;;19.14;75.05
60417;BME280;46263;44.726;10.396;2022-08-14T01:16:38;100020.47;;;18.96;76.27
60417;BME280;46263;44.726;10.396;2022-08-14T01:19:03;100001.41;;;19.15;74.41
60417;BME280;46263;44.726;10.396;2022-08-14T01:21:47;100006.69;;;19.06;74.60
60417;BME280;46263;44.726;10.396;2022-08-14T01:24:13;100005.28;;;19.51;72.79
60417;BME280;46263;44.726;10.396;2022-08-14T01:26:41;100009.91;;;19.70;72.40
60417;BME280;46263;44.726;10.396;2022-08-14T01:29:07;99996.50;;;19.73;72.88
60417;BME280;46263;44.726;10.396;2022-08-14T01:31:33;99994.41;;;19.84;72.88
60417;BME280;46263;44.726;10.396;2022-08-14T01:34:01;99994.88;;;19.72;71.80
60417;BME280;46263;44.726;10.396;2022-08-14T01:36:27;99993.59;;;19.08;73.77
60417;BME280;46263;44.726;10.396;2022-08-14T01:39:02;99988.63;;;19.53;72.39
60417;BME280;46263;44.726;10.396;2022-08-14T01:41:29;99990.75;;;19.18;73.89
60417;BME280;46263;44.726;10.396;2022-08-14T01:43:55;99979.03;;;18.99;74.62
60417;BME280;46263;44.726;10.396;2022-08-14T01:46:25;99991.91;;;18.94;73.87
60417;BME280;46263;44.726;10.396;2022-08-14T01:48:51;99990.97;;;19.03;73.82
60417;BME280;46263;44.726;10.396;2022-08-14T01:51:17;99996.09;;;18.62;76.09
60417;BME280;46263;44.726;10.396;2022-08-14T01:53:45;100001.41;;;18.72;75.95
60417;BME280;46263;44.726;10.396;2022-08-14T01:56:12;99999.94;;;18.80;75.22
60417;BME280;46263;44.726;10.396;2022-08-14T01:58:42;100000.75;;;18.80;74.64
60417;BME280;46263;44.726;10.396;2022-08-14T02:01:09;100000.59;;;18.96;74.10
60417;BME280;46263;44.726;10.396;2022-08-14T02:03:38;99994.41;;;19.09;73.03
60417;BME280;46263;44.726;10.396;2022-08-14T02:06:03;99990.44;;;19.01;72.89
60417;BME280;46263;44.726;10.396;2022-08-14T02:08:29;99987.13;;;19.04;71.98
60417;BME280;46263;44.726;10.396;2022-08-14T02:10:58;99988.81;;;19.00;70.97
60417;BME280;46263;44.726;10.396;2022-08-14T02:13:46;99984.91;;;19.06;70.10
60417;BME280;46263;44.726;10.396;2022-08-14T02:16:13;99978.88;;;18.91;70.83
60417;BME280;46263;44.726;10.396;2022-08-14T02:18:40;99978.75;;;19.01;70.55
60417;BME280;46263;44.726;10.396;2022-08-14T02:21:06;99974.25;;;18.67;71.94
60417;BME280;46263;44.726;10.396;2022-08-14T02:23:31;99971.97;;;18.98;70.73
60417;BME280;46263;44.726;10.396;2022-08-14T02:25:57;99966.22;;;19.18;69.89
60417;BME280;46263;44.726;10.396;2022-08-14T02:28:24;99958.56;;;19.39;68.99
60417;BME280;46263;44.726;10.396;2022-08-14T02:30:49;99961.72;;;19.46;68.78
60417;BME280;46263;44.726;10.396;2022-08-14T02:33:15;99953.72;;;19.55;69.07
60417;BME280;46263;44.726;10.396;2022-08-14T02:35:40;99946.13;;;19.52;68.66
60417;BME280;46263;44.726;10.396;2022-08-14T02:38:07;99947.28;;;19.65;67.75
60417;BME280;46263;44.726;10.396;2022-08-14T02:40:32;99939.00;;;19.56;67.85
60417;BME280;46263;44.726;10.396;2022-08-14T02:42:57;99932.06;;;19.07;68.79
60417;BME280;46263;44.726;10.396;2022-08-14T02:45:24;99923.97;;;19.21;69.02
60417;BME280;46263;44.726;10.396;2022-08-14T02:47:50;99924.03;;;19.35;69.65
60417;BME280;46263;44.726;10.396;2022-08-14T02:50:15;99926.44;;;19.36;70.35
60417;BME280;46263;44.726;10.396;2022-08-14T02:52:41;99925.38;;;19.18;72.11
60417;BME280;46263;44.726;10.396;2022-08-14T02:55:06;99931.19;;;19.31;69.70
60417;BME280;46263;44.726;10.396;2022-08-14T02:57:33;99916.81;;;18.87;68.55
60417;BME280;46263;44.726;10.396;2022-08-14T02:59:58;99913.00;;;18.88;67.79
60417;BME280;46263;44.726;10.396;2022-08-14T03:02:23;99915.72;;;18.70;69.04
60417;BME280;46263;44.726;10.396;2022-08-14T03:04:49;99920.06;;;18.89;67.85
60417;BME280;46263;44.726;10.396;2022-08-14T03:07:14;99920.56;;;18.73;68.16
60417;BME280;46263;44.726;10.396;2022-08-14T03:09:41;99917.63;;;18.45;68.73
60417;BME280;46263;44.726;10.396;2022-08-14T03:12:06;99912.84;;;18.56;69.33
60417;BME280;46263;44.726;10.396;2022-08-14T03:14:31;99916.75;;;18.74;69.49
60417;BME280;46263;44.726;10.396;2022-08-14T03:17:01;99907.19;;;18.95;69.27
60417;BME280;46263;44.726;10.396;2022-08-14T03:19:26;99913.91;;;19.03;68.64
60417;BME280;46263;44.726;10.396;2022-08-14T03:21:51;99906.81;;;18.83;68.33
60417;BME280;46263;44.726;10.396;2022-08-14T03:24:17;99907.78;;;18.92;66.95
60417;BME280;46263;44.726;10.396;2022-08-14T03:26:45;99904.00;;;18.69;68.11
60417;BME280;46263;44.726;10.396;2022-08-14T03:29:13;99906.22;;;18.86;67.47
60417;BME280;46263;44.726;10.396;2022-08-14T03:31:38;99909.78;;;19.05;65.74
60417;BME280;46263;44.726;10.396;2022-08-14T03:34:05;99912.94;;;18.94;66.30
60417;BME280;46263;44.726;10.396;2022-08-14T03:36:32;99905.22;;;18.58;67.75
60417;BME280;46263;44.726;10.396;2022-08-14T03:38:58;99906.97;;;18.73;67.94
60417;BME280;46263;44.726;10.396;2022-08-14T03:41:24;99905.00;;;18.97;67.20
60417;BME280;46263;44.726;10.396;2022-08-14T03:43:55;99905.03;;;19.11;66.75
60417;BME280;46263;44.726;10.396;2022-08-14T03:46:21;99901.75;;;19.14;67.18
60417;BME280;46263;44.726;10.396;2022-08-14T03:48:47;99900.63;;;19.15;66.27
60417;BME280;46263;44.726;10.396;2022-08-14T03:51:13;99899.00;;;19.33;66.27
60417;BME280;46263;44.726;10.396;2022-08-14T03:53:42;99897.06;;;19.01;67.91
60417;BME280;46263;44.726;10.396;2022-08-14T03:56:08;99896.16;;;19.05;67.66
60417;BME280;46263;44.726;10.396;2022-08-14T03:58:38;99891.00;;;18.85;68.08
60417;BME280;46263;44.726;10.396;2022-08-14T04:01:03;99889.41;;;19.03;67.85
60417;BME280;46263;44.726;10.396;2022-08-14T04:03:29;99884.06;;;19.11;67.21
60417;BME280;46263;44.726;10.396;2022-08-14T04:05:54;99882.09;;;18.98;66.00
60417;BME280;46263;44.726;10.396;2022-08-14T04:08:20;99872.00;;;18.80;66.31
60417;BME280;46263;44.726;10.396;2022-08-14T04:10:46;99873.72;;;18.76;65.26
60417;BME280;46263;44.726;10.396;2022-08-14T04:13:12;99876.44;;;18.76;64.56
60417;BME280;46263;44.726;10.396;2022-08-14T04:15:40;99878.66;;;18.74;63.82
60417;BME280;46263;44.726;10.396;2022-08-14T04:18:06;99866.50;;;19.04;62.95
60417;BME280;46263;44.726;10.396;2022-08-14T04:20:35;99867.81;;;19.06;62.53
60417;BME280;46263;44.726;10.396;2022-08-14T04:23:01;99864.28;;;19.06;63.08
60417;BME280;46263;44.726;10.396;2022-08-14T04:25:27;99861.75;;;19.09;63.46
60417;BME280;46263;44.726;10.396;2022-08-14T04:27:55;99866.69;;;19.07;62.22
60417;BME280;46263;44.726;10.396;2022-08-14T04:30:20;99859.13;;;19.23;60.50
60417;BME280;46263;44.726;10.396;2022-08-14T04:32:46;99863.31;;;19.48;60.08
60417;BME280;46263;44.726;10.396;2022-08-14T04:35:11;99859.22;;;19.50;58.74
60417;BME280;46263;44.726;10.396;2022-08-14T04:37:36;99854.50;;;19.56;57.87
60417;BME280;46263;44.726;10.396;2022-08-14T04:40:20;99855.44;;;19.46;57.18
60417;BME280;46263;44.726;10.396;2022-08-14T04:43:04;99862.31;;;19.44;56.61
60417;BME280;46263;44.726;10.396;2022-08-14T04:45:48;99864.22;;;19.43;55.67
60417;BME280;46263;44.726;10.396;2022-08-14T04:48:13;99859.97;;;19.56;55.30
60417;BME280;46263;44.726;10.396;2022-08-14T04:50:40;99861.38;;;19.53;56.55
60417;BME280;46263;44.726;10.396;2022-08-14T04:53:06;99872.41;;;19.43;58.22
60417;BME280;46263;44.726;10.396;2022-08-14T04:55:31;99870.97;;;19.13;62.02
60417;BME280;46263;44.726;10.396;2022-08-14T04:57:57;99871.84;;;19.09;63.73
60417;BME280;46263;44.726;10.396;2022-08-14T05:00:23;99884.09;;;18.93;65.58
60417;BME280;46263;44.726;10.396;2022-08-14T05:02:48;99886.19;;;19.14;65.75
60417;BME280;46263;44.726;10.396;2022-08-14T05:05:13;99894.66;;;19.13;66.69
60417;BME280;46263;44.726;10.396;2022-08-14T05:07:39;99894.09;;;18.97;67.15
60417;BME280;46263;44.726;10.396;2022-08-14T05:10:06;99905.50;;;18.99;66.41
60417;BME280;46263;44.726;10.396;2022-08-14T05:12:31;99913.81;;;19.08;65.53
60417;BME280;46263;44.726;10.396;2022-08-14T05:14:57;99918.06;;;19.14;63.01
60417;BME280;46263;44.726;10.396;2022-08-14T05:17:23;99919.41;;;19.16;62.66
60417;BME280;46263;44.726;10.396;2022-08-14T05:19:50;99917.56;;;19.31;61.01
60417;BME280;46263;44.726;10.396;2022-08-14T05:22:15;99921.63;;;19.14;60.51
60417;BME280;46263;44.726;10.396;2022-08-14T05:24:40;99922.56;;;19.23;60.12
60417;BME280;46263;44.726;10.396;2022-08-14T05:27:06;99919.72;;;19.34;60.70
60417;BME280;46263;44.726;10.396;2022-08-14T05:29:31;99915.63;;;19.50;59.77
60417;BME280;46263;44.726;10.396;2022-08-14T05:31:56;99918.81;;;19.57;59.85
60417;BME280;46263;44.726;10.396;2022-08-14T05:34:21;99910.41;;;19.35;60.90
60417;BME280;46263;44.726;10.396;2022-08-14T05:36:47;99913.13;;;19.35;61.94
60417;BME280;46263;44.726;10.396;2022-08-14T05:39:13;99900.44;;;19.44;62.18
60417;BME280;46263;44.726;10.396;2022-08-14T05:41:38;99905.56;;;19.50;62.19
60417;BME280;46263;44.726;10.396;2022-08-14T05:44:03;99915.91;;;19.67;62.03
60417;BME280;46263;44.726;10.396;2022-08-14T05:46:29;99929.22;;;19.69;62.78
60417;BME280;46263;44.726;10.396;2022-08-14T05:48:55;99931.66;;;19.70;63.45
60417;BME280;46263;44.726;10.396;2022-08-14T05:51:21;99950.44;;;19.72;62.84
60417;BME280;46263;44.726;10.396;2022-08-14T05:53:47;99949.63;;;19.71;62.69
60417;BME280;46263;44.726;10.396;2022-08-14T05:56:12;99953.16;;;19.72;63.42
60417;BME280;46263;44.726;10.396;2022-08-14T05:58:38;99941.59;;;19.80;63.75
60417;BME280;46263;44.726;10.396;2022-08-14T06:01:03;99949.78;;;19.94;63.22
60417;BME280;46263;44.726;10.396;2022-08-14T06:03:29;99945.28;;;20.03;62.41
60417;BME280;46263;44.726;10.396;2022-08-14T06:05:54;99945.28;;;20.03;62.89
60417;BME280;46263;44.726;10.396;2022-08-14T06:08:24;99938.31;;;20.10;62.92
60417;BME280;46263;44.726;10.396;2022-08-14T06:10:50;99936.91;;;20.13;62.76
60417;BME280;46263;44.726;10.396;2022-08-14T06:13:16;99937.00;;;20.21;62.58
60417;BME280;46263;44.726;10.396;2022-08-14T06:15:42;99931.88;;;20.34;62.65
60417;BME280;46263;44.726;10.396;2022-08-14T06:18:08;99927.72;;;20.36;61.99
60417;BME280;46263;44.726;10.396;2022-08-14T06:20:33;99928.16;;;20.43;61.87
60417;BME280;46263;44.726;10.396;2022-08-14T06:22:59;99925.66;;;20.47;61.93
60417;BME280;46263;44.726;10.396;2022-08-14T06:25:24;99918.13;;;20.52;61.71
60417;BME280;46263;44.726;10.396;2022-08-14T06:27:49;99922.59;;;20.62;61.55
60417;BME280;46263;44.726;10.396;2022-08-14T06:30:16;99920.38;;;20.64;61.34
60417;BME280;46263;44.726;10.396;2022-08-14T06:32:42;99911.78;;;20.71;61.79
60417;BME280;46263;44.726;10.396;2022-08-14T06:35:08;99898.13;;;20.71;61.46
60417;BME280;46263;44.726;10.396;2022-08-14T06:37:47;99895.84;;;20.86;61.58
60417;BME280;46263;44.726;10.396;2022-08-14T06:40:14;99894.44;;;20.89;60.86
60417;BME280;46263;44.726;10.396;2022-08-14T06:42:40;99897.94;;;21.03;61.18
60417;BME280;46263;44.726;10.396;2022-08-14T06:45:05;99899.41;;;21.09;60.75
60417;BME280;46263;44.726;10.396;2022-08-14T06:47:34;99907.13;;;21.07;61.35
60417;BME280;46263;44.726;10.396;2022-08-14T06:50:00;99905.78;;;21.18;60.85
60417;BME280;46263;44.726;10.396;2022-08-14T06:52:26;99898.00;;;21.26;61.00
60417;BME280;46263;44.726;10.396;2022-08-14T06:54:51;99892.59;;;21.34;60.77
60417;BME280;46263;44.726;10.396;2022-08-14T06:57:17;99896.50;;;21.42;60.96
60417;BME280;46263;44.726;10.396;2022-08-14T06:59:42;99896.25;;;21.52;61.19
60417;BME280;46263;44.726;10.396;2022-08-14T07:02:07;99888.28;;;21.64;61.33
60417;BME280;46263;44.726;10.396;2022-08-14T07:04:51;99895.22;;;21.70;61.08
60417;BME280;46263;44.726;10.396;2022-08-14T07:07:38;99907.78;;;21.71;60.76
60417;BME280;46263;44.726;10.396;2022-08-14T07:10:04;99911.50;;;21.75;60.40
60417;BME280;46263;44.726;10.396;2022-08-14T07:12:29;99907.72;;;21.85;60.52
60417;BME280;46263;44.726;10.396;2022-08-14T07:14:55;99908.88;;;21.93;60.35
60417;BME280;46263;44.726;10.396;2022-08-14T07:17:20;99909.47;;;22.12;60.04
60417;BME280;46263;44.726;10.396;2022-08-14T07:19:45;99906.94;;;22.15;59.74
60417;BME280;46263;44.726;10.396;2022-08-14T07:22:10;99901.78;;;22.14;59.42
60417;BME280;46263;44.726;10.396;2022-08-14T07:24:36;99908.19;;;22.09;59.62
60417;BME280;46263;44.726;10.396;2022-08-14T07:27:01;99909.66;;;22.15;60.08
60417;BME280;46263;44.726;10.396;2022-08-14T07:29:26;99914.53;;;22.27;59.88
60417;BME280;46263;44.726;10.396;2022-08-14T07:31:52;99907.28;;;22.31;59.67
60417;BME280;46263;44.726;10.396;2022-08-14T07:34:17;99905.44;;;22.49;59.46
60417;BME280;46263;44.726;10.396;2022-08-14T07:36:42;99919.63;;;22.60;58.15
60417;BME280;46263;44.726;10.396;2022-08-14T07:39:08;99918.50;;;22.61;57.53
60417;BME280;46263;44.726;10.396;2022-08-14T07:41:33;99918.03;;;22.67;57.62
60417;BME280;46263;44.726;10.396;2022-08-14T07:43:58;99910.38;;;22.78;57.92
60417;BME280;46263;44.726;10.396;2022-08-14T07:46:24;99909.56;;;22.86;57.92
60417;BME280;46263;44.726;10.396;2022-08-14T07:48:49;99912.50;;;22.98;58.81
60417;BME280;46263;44.726;10.396;2022-08-14T07:51:14;99918.91;;;22.94;56.63
60417;BME280;46263;44.726;10.396;2022-08-14T07:53:39;99915.88;;;23.12;58.05
60417;BME280;46263;44.726;10.396;2022-08-14T07:56:05;99911.38;;;23.25;57.74
60417;BME280;46263;44.726;10.396;2022-08-14T07:58:30;99907.16;;;23.28;56.68
60417;BME280;46263;44.726;10.396;2022-08-14T08:00:56;99903.16;;;23.34;57.73
60417;BME280;46263;44.726;10.396;2022-08-14T08:03:22;99907.19;;;23.36;55.08
60417;BME280;46263;44.726;10.396;2022-08-14T08:05:49;99905.53;;;23.44;54.59
60417;BME280;46263;44.726;10.396;2022-08-14T08:08:14;99912.81;;;23.57;55.78
60417;BME280;46263;44.726;10.396;2022-08-14T08:10:40;99914.88;;;23.69;54.20
60417;BME280;46263;44.726;10.396;2022-08-14T08:13:11;99916.47;;;23.78;53.39
60417;BME280;46263;44.726;10.396;2022-08-14T08:15:47;99911.00;;;23.78;52.16
60417;BME280;46263;44.726;10.396;2022-08-14T08:18:14;99915.19;;;23.84;51.55
60417;BME280;46263;44.726;10.396;2022-08-14T08:20:41;99918.72;;;23.94;51.87
60417;BME280;46263;44.726;10.396;2022-08-14T08:23:06;99921.31;;;23.90;50.60
60417;BME280;46263;44.726;10.396;2022-08-14T08:25:33;99927.06;;;24.06;51.87
60417;BME280;46263;44.726;10.396;2022-08-14T08:28:00;99929.78;;;24.14;51.56
60417;BME280;46263;44.726;10.396;2022-08-14T08:30:26;99936.25;;;24.10;51.45
60417;BME280;46263;44.726;10.396;2022-08-14T08:32:53;99937.34;;;24.26;50.41
60417;BME280;46263;44.726;10.396;2022-08-14T08:35:23;99948.00;;;24.28;49.62
60417;BME280;46263;44.726;10.396;2022-08-14T08:37:54;99932.75;;;24.47;50.03
60417;BME280;46263;44.726;10.396;2022-08-14T08:40:29;99933.41;;;24.44;49.96
60417;BME280;46263;44.726;10.396;2022-08-14T08:42:59;99936.44;;;24.51;50.26
60417;BME280;46263;44.726;10.396;2022-08-14T08:45:24;99947.84;;;24.62;49.51
60417;BME280;46263;44.726;10.396;2022-08-14T08:47:50;99946.97;;;24.79;48.91
60417;BME280;46263;44.726;10.396;2022-08-14T08:50:48;99943.19;;;24.83;49.30
60417;BME280;46263;44.726;10.396;2022-08-14T08:53:08;99941.19;;;24.92;48.76
60417;BME280;46263;44.726;10.396;2022-08-14T08:55:34;99931.28;;;25.09;49.67
60417;BME280;46263;44.726;10.396;2022-08-14T08:58:02;99926.69;;;25.13;47.83
60417;BME280;46263;44.726;10.396;2022-08-14T09:00:28;99914.28;;;25.28;47.97
60417;BME280;46263;44.726;10.396;2022-08-14T09:02:59;99903.50;;;25.22;46.90
60417;BME280;46263;44.726;10.396;2022-08-14T09:05:27;99905.56;;;25.26;47.65
60417;BME280;46263;44.726;10.396;2022-08-14T09:07:53;99907.47;;;25.46;48.14
60417;BME280;46263;44.726;10.396;2022-08-14T09:10:18;99912.31;;;25.49;47.19
60417;BME280;46263;44.726;10.396;2022-08-14T09:12:44;99903.66;;;25.59;46.98
60417;BME280;46263;44.726;10.396;2022-08-14T09:15:09;99897.47;;;25.62;47.02
60417;BME280;46263;44.726;10.396;2022-08-14T09:17:35;99902.34;;;25.77;47.56
60417;BME280;46263;44.726;10.396;2022-08-14T09:20:00;99901.84;;;25.96;46.67
60417;BME280;46263;44.726;10.396;2022-08-14T09:22:26;99898.38;;;25.99;46.85
60417;BME280;46263;44.726;10.396;2022-08-14T09:24:51;99900.25;;;26.19;46.64
60417;BME280;46263;44.726;10.396;2022-08-14T09:27:17;99899.69;;;26.26;45.75
60417;BME280;46263;44.726;10.396;2022-08-14T09:29:42;99899.69;;;26.38;44.74
60417;BME280;46263;44.726;10.396;2022-08-14T09:32:08;99900.03;;;26.37;43.64
60417;BME280;46263;44.726;10.396;2022-08-14T09:34:44;99897.88;;;26.42;44.72
60417;BME280;46263;44.726;10.396;2022-08-14T09:42:43;99895.22;;;26.46;45.37
60417;BME280;46263;44.726;10.396;2022-08-14T09:45:16;99902.91;;;26.52;45.15
60417;BME280;46263;44.726;10.396;2022-08-14T09:47:46;99894.59;;;26.89;43.80
60417;BME280;46263;44.726;10.396;2022-08-14T09:50:16;99882.84;;;26.92;43.83
60417;BME280;46263;44.726;10.396;2022-08-14T09:52:53;99881.16;;;27.28;42.78
60417;BME280;46263;44.726;10.396;2022-08-14T09:55:19;99883.81;;;26.96;42.65
60417;BME280;46263;44.726;10.396;2022-08-14T09:57:44;99891.59;;;27.06;42.84
60417;BME280;46263;44.726;10.396;2022-08-14T10:00:10;99888.09;;;27.21;42.91
60417;BME280;46263;44.726;10.396;2022-08-14T10:02:38;99881.88;;;27.96;42.36
60417;BME280;46263;44.726;10.396;2022-08-14T10:05:14;99874.81;;;27.83;43.16
60417;BME280;46263;44.726;10.396;2022-08-14T10:07:46;99876.59;;;27.75;41.83
60417;BME280;46263;44.726;10.396;2022-08-14T10:10:26;99878.22;;;27.92;41.90
60417;BME280;46263;44.726;10.396;2022-08-14T10:12:52;99883.66;;;28.51;41.62
60417;BME280;46263;44.726;10.396;2022-08-14T10:15:20;99880.44;;;28.34;41.10
60417;BME280;46263;44.726;10.396;2022-08-14T10:17:46;99868.53;;;28.30;40.06
60417;BME280;46263;44.726;10.396;2022-08-14T10:20:13;99857.25;;;28.54;39.87
60417;BME280;46263;44.726;10.396;2022-08-14T10:22:39;99864.78;;;28.73;38.66
60417;BME280;46263;44.726;10.396;2022-08-14T10:25:11;99875.34;;;28.51;39.16
60417;BME280;46263;44.726;10.396;2022-08-14T10:27:38;99862.56;;;29.36;37.92
60417;BME280;46263;44.726;10.396;2022-08-14T10:30:11;99864.09;;;29.53;40.49
60417;BME280;46263;44.726;10.396;2022-08-14T10:32:43;99854.34;;;29.40;39.08
60417;BME280;46263;44.726;10.396;2022-08-14T10:35:09;99866.53;;;29.16;37.78
60417;BME280;46263;44.726;10.396;2022-08-14T10:37:39;99855.13;;;29.60;37.39
60417;BME280;46263;44.726;10.396;2022-08-14T10:40:05;99853.63;;;28.85;38.53
60417;BME280;46263;44.726;10.396;2022-08-14T10:42:35;99853.09;;;29.37;37.84
60417;BME280;46263;44.726;10.396;2022-08-14T10:45:03;99846.66;;;29.95;36.94
60417;BME280;46263;44.726;10.396;2022-08-14T10:47:40;99843.94;;;30.21;36.52
60417;BME280;46263;44.726;10.396;2022-08-14T10:50:05;99841.41;;;30.12;36.34
60417;BME280;46263;44.726;10.396;2022-08-14T10:52:31;99837.56;;;29.71;37.26
60417;BME280;46263;44.726;10.396;2022-08-14T10:55:08;99842.03;;;29.79;36.06
60417;BME280;46263;44.726;10.396;2022-08-14T11:00:13;99828.91;;;30.22;35.34
60417;BME280;46263;44.726;10.396;2022-08-14T11:02:40;99826.72;;;29.63;35.27
60417;BME280;46263;44.726;10.396;2022-08-14T11:07:32;99822.50;;;30.71;34.33
60417;BME280;46263;44.726;10.396;2022-08-14T11:09:59;99821.09;;;29.82;34.89
60417;BME280;46263;44.726;10.396;2022-08-14T11:12:25;99816.06;;;29.65;36.42
60417;BME280;46263;44.726;10.396;2022-08-14T11:14:54;99814.69;;;30.23;34.56
60417;BME280;46263;44.726;10.396;2022-08-14T11:17:20;99814.94;;;29.92;34.44
60417;BME280;46263;44.726;10.396;2022-08-14T11:19:48;99812.09;;;30.61;34.69
60417;BME280;46263;44.726;10.396;2022-08-14T11:22:16;99802.06;;;31.12;33.07
60417;BME280;46263;44.726;10.396;2022-08-14T11:24:42;99797.44;;;30.64;33.64
60417;BME280;46263;44.726;10.396;2022-08-14T11:27:08;99796.22;;;30.35;34.36
60417;BME280;46263;44.726;10.396;2022-08-14T11:29:33;99791.66;;;30.46;34.18
60417;BME280;46263;44.726;10.396;2022-08-14T11:32:00;99791.31;;;31.11;32.96
60417;BME280;46263;44.726;10.396;2022-08-14T11:34:27;99785.66;;;31.37;32.73
60417;BME280;46263;44.726;10.396;2022-08-14T11:36:52;99788.94;;;31.91;32.20
60417;BME280;46263;44.726;10.396;2022-08-14T11:39:20;99787.63;;;32.25;31.84
60417;BME280;46263;44.726;10.396;2022-08-14T11:41:46;99788.34;;;31.67;31.89
60417;BME280;46263;44.726;10.396;2022-08-14T11:44:11;99783.16;;;32.17;31.47
60417;BME280;46263;44.726;10.396;2022-08-14T11:46:36;99779.56;;;32.13;30.92
60417;BME280;46263;44.726;10.396;2022-08-14T11:49:01;99786.28;;;32.05;31.01
60417;BME280;46263;44.726;10.396;2022-08-14T11:51:27;99765.13;;;31.45;33.63
60417;BME280;46263;44.726;10.396;2022-08-14T11:53:59;99767.72;;;31.28;32.50
60417;BME280;46263;44.726;10.396;2022-08-14T11:56:25;99768.00;;;31.19;34.41
60417;BME280;46263;44.726;10.396;2022-08-14T11:58:57;99763.09;;;30.15;33.75
60417;BME280;46263;44.726;10.396;2022-08-14T12:01:27;99761.31;;;30.90;33.02
60417;BME280;46263;44.726;10.396;2022-08-14T12:03:52;99762.91;;;30.91;33.32
60417;BME280;46263;44.726;10.396;2022-08-14T12:06:20;99764.47;;;32.10;33.81
60417;BME280;46263;44.726;10.396;2022-08-14T12:08:46;99769.06;;;32.43;32.99
60417;BME280;46263;44.726;10.396;2022-08-14T12:11:13;99758.94;;;32.17;33.25
60417;BME280;46263;44.726;10.396;2022-08-14T12:13:39;99758.91;;;31.63;31.46
60417;BME280;46263;44.726;10.396;2022-08-14T12:16:06;99757.84;;;32.26;31.40
60417;BME280;46263;44.726;10.396;2022-08-14T12:18:32;99759.63;;;32.69;32.02
60417;BME280;46263;44.726;10.396;2022-08-14T12:21:09;99758.34;;;32.49;31.81
60417;BME280;46263;44.726;10.396;2022-08-14T12:23:34;99752.34;;;33.41;32.59
60417;BME280;46263;44.726;10.396;2022-08-14T12:26:03;99749.53;;;33.51;30.60
60417;BME280;46263;44.726;10.396;2022-08-14T12:28:29;99758.34;;;32.45;30.71
60417;BME280;46263;44.726;10.396;2022-08-14T12:30:54;99760.69;;;33.44;30.04
60417;BME280;46263;44.726;10.396;2022-08-14T12:33:21;99760.44;;;32.70;30.17
60417;BME280;46263;44.726;10.396;2022-08-14T12:35:49;99752.75;;;31.83;32.24
60417;BME280;46263;44.726;10.396;2022-08-14T12:38:15;99744.19;;;30.81;33.25
60417;BME280;46263;44.726;10.396;2022-08-14T12:40:53;99736.97;;;31.47;32.14
60417;BME280;46263;44.726;10.396;2022-08-14T12:43:20;99737.31;;;32.48;30.27
60417;BME280;46263;44.726;10.396;2022-08-14T12:45:47;99729.22;;;33.19;30.84
60417;BME280;46263;44.726;10.396;2022-08-14T12:48:16;99730.66;;;31.98;30.69
60417;BME280;46263;44.726;10.396;2022-08-14T12:50:42;99730.47;;;31.76;31.33
60417;BME280;46263;44.726;10.396;2022-08-14T12:53:08;99728.72;;;32.12;30.77
60417;BME280;46263;44.726;10.396;2022-08-14T12:55:37;99726.88;;;31.69;32.34
60417;BME280;46263;44.726;10.396;2022-08-14T12:58:06;99722.03;;;31.66;33.17